Riverton Regional Airport
KRIW : now visible

Airfield :











YOU CAN JOIN US ON...

 
LOGIN :

Register | Disclaimer

   EN    FR    IT 

 









Legend :    VFR   Marginal VFR   IFR   Intensive IFR   Very Intensive IFR
Visi :
Ceiling :
>= 8 km
>= 3000ft
5 to 8 km
1000 to 3000 ft
1500m to 5 km
500 to 1000 ft
800 to 1500m
200 to 500 ft
< 800m
< 200 ft
Symbols :   Thunderstorms  Fog  Heavy snow  Heavy precipitations  Wind > 20 kt






- Airport Elevation : 5525 ft


KRIW - Riverton Regional

CURRENT METAR :
  • 110453Z AUTO 09004KT 10SM CLR M12/M14 A3014 RMK AO2 SLPNO T11221139

EXPIRED METARs :
  • 110353Z AUTO 21006KT 10SM CLR M11/M13 A3015 RMK AO2 SLPNO T11061128
  • 110253Z AUTO 00000KT 10SM CLR M11/M13 A3015 RMK AO2 SLP295 T11061128 51006
  • 110153Z AUTO VRB03KT 10SM CLR M09/M12 A3014 RMK AO2 SLP289 T10941117

TAF KRIW
Valid from the 11 at 00:00 until the 12 at 00:00 UTC


102337Z 1100/1124 VRB06KT P6SM SCT100 SCT200
FM112200 28009KT P6SM SCT100 BKN150



MET'MAP, your aeronautical weather chart ! - Copyright ORBIFLY December 2007 - Disclaimer

ORBIFLY MET'MAP TEAM :

Programming & Development : Alexandra Zaïnal
Concept & original design : Baudouin d'Aumeries
Assistance for programming : Marc-Olivier Méhu
Technical & hardware support : Manuel Goepfert

Contact : metmap@orbifly.com




SOURCES & CREDITS :

   NOAA       Earth
Advisory